createdAt,value
2018-08-20T00:00:38.217Z,58.60
2018-08-20T00:03:06.321Z,58.60
2018-08-20T00:05:37.332Z,58.80
2018-08-20T00:08:05.541Z,58.80
2018-08-20T00:10:33.774Z,58.80
2018-08-20T00:13:01.914Z,59.00
2018-08-20T00:15:30.137Z,59.00
2018-08-20T00:17:58.301Z,58.90
2018-08-20T00:20:26.548Z,58.80
2018-08-20T00:22:54.914Z,58.60
2018-08-20T00:25:23.109Z,58.50
2018-08-20T00:27:51.228Z,58.30
2018-08-20T00:30:20.029Z,58.30
2018-08-20T00:32:49.014Z,58.30
2018-08-20T00:35:18.914Z,58.30
2018-08-20T00:37:50.704Z,58.30
2018-08-20T00:40:19.490Z,58.30
2018-08-20T00:42:47.614Z,58.20
2018-08-20T00:45:15.672Z,58.00
2018-08-20T00:47:43.753Z,58.20
2018-08-20T00:50:11.967Z,58.00
2018-08-20T00:52:40.078Z,57.90
2018-08-20T00:55:10.120Z,57.80
2018-08-20T00:57:38.248Z,57.80
2018-08-20T01:00:07.233Z,57.70
2018-08-20T01:02:35.329Z,57.70
2018-08-20T01:05:03.446Z,57.40
2018-08-20T01:07:31.686Z,57.50
2018-08-20T01:09:59.762Z,57.50
2018-08-20T01:12:28.333Z,57.40
2018-08-20T01:14:56.928Z,57.50
2018-08-20T01:17:25.000Z,57.50
2018-08-20T01:19:53.074Z,57.50
2018-08-20T01:22:21.454Z,57.70
2018-08-20T01:24:49.814Z,57.60
2018-08-20T01:27:22.153Z,57.90
2018-08-20T01:29:50.814Z,58.10
2018-08-20T01:32:18.963Z,58.10
2018-08-20T01:34:47.092Z,58.30
2018-08-20T01:37:16.326Z,58.50
2018-08-20T01:39:44.848Z,58.70
2018-08-20T01:42:13.477Z,58.60
2018-08-20T01:44:41.702Z,58.70
2018-08-20T01:47:09.787Z,58.80
2018-08-20T01:49:37.912Z,58.70
2018-08-20T01:52:06.814Z,58.80
2018-08-20T01:54:35.849Z,58.80
2018-08-20T01:57:04.326Z,59.50
2018-08-20T01:59:32.398Z,59.10
2018-08-20T02:02:00.723Z,59.00
2018-08-20T02:04:28.976Z,58.80
2018-08-20T02:06:57.075Z,59.10
2018-08-20T02:09:25.180Z,58.60
2018-08-20T02:11:53.284Z,58.80
2018-08-20T02:14:21.426Z,58.70
2018-08-20T02:16:49.515Z,59.10
2018-08-20T02:19:17.641Z,59.00
2018-08-20T02:21:45.747Z,58.90
2018-08-20T02:24:13.864Z,59.10
2018-08-20T02:26:41.959Z,59.00
2018-08-20T02:29:10.060Z,59.00
2018-08-20T02:31:38.172Z,59.40
2018-08-20T02:34:06.318Z,59.10
2018-08-20T02:36:34.466Z,59.10
2018-08-20T02:39:02.603Z,59.20
2018-08-20T02:41:30.686Z,59.30
2018-08-20T02:43:58.787Z,59.40
2018-08-20T02:46:38.506Z,59.60
2018-08-20T02:49:06.823Z,59.70
2018-08-20T02:51:34.891Z,60.00
2018-08-20T02:54:02.968Z,59.90
2018-08-20T02:56:31.045Z,60.30
2018-08-20T02:58:59.145Z,60.30
2018-08-20T03:01:27.379Z,60.60
2018-08-20T03:03:55.467Z,61.00
2018-08-20T03:06:23.566Z,60.90
2018-08-20T03:08:51.650Z,61.40
2018-08-20T03:11:19.770Z,61.60
2018-08-20T03:13:48.101Z,61.90
2018-08-20T03:16:16.218Z,62.30
2018-08-20T03:18:44.345Z,62.60
2018-08-20T03:21:12.477Z,63.00
2018-08-20T03:23:40.686Z,63.20
2018-08-20T03:26:08.796Z,63.50
2018-08-20T03:28:36.908Z,63.70
2018-08-20T03:31:05.062Z,64.00
2018-08-20T03:33:33.955Z,64.10
2018-08-20T03:36:02.078Z,64.30
2018-08-20T03:38:30.172Z,64.40
2018-08-20T03:40:58.249Z,64.50
2018-08-20T03:43:26.369Z,64.40
2018-08-20T03:45:54.530Z,64.60
2018-08-20T03:48:22.671Z,64.80
2018-08-20T03:50:50.774Z,64.90
2018-08-20T03:53:18.926Z,65.00
2018-08-20T03:55:47.041Z,65.10
2018-08-20T03:58:15.248Z,65.10
2018-08-20T04:00:43.431Z,65.10
2018-08-20T04:03:11.503Z,65.20
2018-08-20T04:05:39.612Z,65.20
2018-08-20T04:08:07.714Z,65.20
2018-08-20T04:10:35.866Z,65.20
2018-08-20T04:13:03.958Z,65.10
2018-08-20T04:15:32.092Z,65.40
2018-08-20T04:18:00.191Z,64.90
2018-08-20T04:20:28.399Z,64.90
2018-08-20T04:22:56.859Z,65.80
2018-08-20T04:25:24.997Z,65.00
2018-08-20T04:27:53.089Z,65.10
2018-08-20T04:30:21.231Z,65.20
2018-08-20T04:32:49.386Z,65.20
2018-08-20T04:35:17.502Z,65.20
2018-08-20T04:37:45.646Z,65.10
2018-08-20T04:40:13.751Z,65.00
2018-08-20T04:42:41.932Z,64.90
2018-08-20T04:45:10.092Z,64.90
2018-08-20T04:47:38.187Z,65.70
2018-08-20T04:50:08.172Z,64.90
2018-08-20T04:52:36.219Z,65.10
2018-08-20T04:55:04.551Z,65.10
2018-08-20T04:57:32.726Z,65.50
2018-08-20T05:00:01.079Z,64.30
2018-08-20T05:02:29.256Z,63.90
2018-08-20T05:04:57.351Z,64.00
2018-08-20T05:07:25.426Z,63.90
2018-08-20T05:09:53.497Z,63.70
2018-08-20T05:12:21.620Z,63.60
2018-08-20T05:14:50.591Z,63.40
2018-08-20T05:17:18.714Z,63.80
2018-08-20T05:19:46.866Z,64.00
2018-08-20T05:22:14.963Z,64.10
2018-08-20T05:24:43.223Z,64.20
2018-08-20T05:27:11.360Z,64.00
2018-08-20T05:29:39.516Z,64.00
2018-08-20T05:32:07.824Z,63.90
2018-08-20T05:34:35.926Z,64.50
2018-08-20T05:37:04.299Z,63.40
2018-08-20T05:39:32.382Z,62.90
2018-08-20T05:42:00.525Z,61.40
2018-08-20T05:44:28.738Z,61.50
2018-08-20T05:46:57.822Z,61.20
2018-08-20T05:49:25.930Z,60.80
2018-08-20T05:51:54.042Z,61.20
2018-08-20T05:54:22.182Z,59.50
2018-08-20T05:56:50.302Z,59.20
2018-08-20T05:59:18.494Z,59.40
2018-08-20T06:01:46.653Z,59.30
2018-08-20T06:04:14.763Z,59.30
2018-08-20T06:06:42.862Z,59.30
2018-08-20T06:09:11.518Z,59.10
2018-08-20T06:11:39.751Z,59.10
2018-08-20T06:14:07.846Z,58.80
2018-08-20T06:16:36.001Z,59.00
2018-08-20T06:19:04.389Z,59.00
2018-08-20T06:21:33.171Z,58.90
2018-08-20T06:24:01.292Z,58.70
2018-08-20T06:26:29.617Z,58.50
2018-08-20T06:28:58.719Z,57.90
2018-08-20T06:31:26.797Z,57.50
2018-08-20T06:33:54.919Z,57.00
2018-08-20T06:36:23.044Z,56.90
2018-08-20T06:38:51.136Z,56.90
2018-08-20T06:41:19.291Z,57.00
2018-08-20T06:43:47.417Z,57.60
2018-08-20T06:46:15.529Z,56.90
2018-08-20T06:48:43.654Z,56.90
2018-08-20T06:51:11.779Z,56.50
2018-08-20T06:53:39.991Z,56.20
2018-08-20T06:56:08.090Z,56.20
2018-08-20T06:58:36.187Z,55.70
2018-08-20T07:01:04.261Z,55.30
2018-08-20T07:03:32.342Z,55.50
2018-08-20T07:06:00.460Z,56.00
2018-08-20T07:08:28.566Z,56.50
2018-08-20T07:10:56.663Z,56.80
2018-08-20T07:13:34.827Z,57.30
2018-08-20T07:16:03.111Z,57.20
2018-08-20T07:18:31.262Z,57.40
2018-08-20T07:20:59.454Z,57.30
2018-08-20T07:23:27.845Z,57.50
2018-08-20T07:25:55.973Z,57.50
2018-08-20T07:28:24.106Z,57.40
2018-08-20T07:30:52.210Z,57.60
2018-08-20T07:33:20.357Z,57.50
2018-08-20T07:35:48.521Z,57.70
2018-08-20T07:38:16.686Z,57.50
2018-08-20T07:40:44.838Z,57.20
2018-08-20T07:43:12.938Z,56.80
2018-08-20T07:45:41.011Z,56.60
2018-08-20T07:48:09.174Z,56.40
2018-08-20T07:50:37.321Z,56.10
2018-08-20T07:53:05.728Z,56.10
2018-08-20T07:55:33.880Z,56.20
2018-08-20T07:58:02.195Z,56.20
2018-08-20T08:00:30.323Z,55.80
2018-08-20T08:02:58.398Z,56.20
2018-08-20T08:05:26.521Z,56.20
2018-08-20T08:07:54.687Z,56.60
2018-08-20T08:10:22.855Z,56.70
2018-08-20T08:12:50.983Z,56.60
2018-08-20T08:15:19.229Z,56.90
2018-08-20T08:17:47.426Z,56.80
2018-08-20T08:20:16.088Z,56.60
2018-08-20T08:22:44.291Z,56.40
2018-08-20T08:25:12.389Z,56.20
2018-08-20T08:27:40.489Z,56.20
2018-08-20T08:30:13.859Z,55.70
2018-08-20T08:32:42.139Z,55.70
2018-08-20T08:35:10.922Z,55.80
2018-08-20T08:37:39.386Z,55.80
2018-08-20T08:40:07.817Z,55.60
2018-08-20T08:42:35.976Z,55.50
2018-08-20T08:45:06.449Z,55.60
2018-08-20T08:47:34.735Z,55.80
2018-08-20T08:50:02.911Z,55.90
2018-08-20T08:52:31.041Z,55.90
2018-08-20T08:54:59.223Z,56.10
2018-08-20T08:57:27.310Z,56.30
2018-08-20T08:59:55.585Z,56.60
2018-08-20T09:02:23.704Z,56.70
2018-08-20T09:04:51.839Z,56.90
2018-08-20T09:07:19.938Z,56.90
2018-08-20T09:09:48.028Z,56.50
2018-08-20T09:12:16.185Z,56.20
2018-08-20T09:14:44.372Z,56.20
2018-08-20T09:17:12.587Z,56.10
2018-08-20T09:19:40.679Z,56.70
2018-08-20T09:22:08.738Z,55.60
2018-08-20T09:24:36.850Z,56.20
2018-08-20T09:27:05.004Z,55.90
2018-08-20T09:29:33.098Z,55.80
2018-08-20T09:32:01.194Z,55.10
2018-08-20T09:34:29.314Z,55.00
2018-08-20T09:36:57.416Z,54.90
2018-08-20T09:39:25.527Z,54.60
2018-08-20T09:41:53.633Z,54.30
2018-08-20T09:44:21.723Z,54.40
2018-08-20T09:46:49.863Z,54.60
2018-08-20T09:49:18.071Z,54.60
2018-08-20T09:51:46.174Z,54.70
2018-08-20T09:54:14.298Z,54.80
2018-08-20T09:56:42.410Z,54.30
2018-08-20T09:59:10.577Z,54.40
2018-08-20T10:01:38.642Z,54.70
2018-08-20T10:04:06.810Z,54.80
2018-08-20T10:06:34.903Z,54.70
2018-08-20T10:09:03.255Z,55.00
2018-08-20T10:11:31.393Z,54.60
2018-08-20T10:13:59.501Z,55.00
2018-08-20T10:16:27.650Z,55.00
2018-08-20T10:18:55.779Z,54.90
2018-08-20T10:21:23.939Z,55.10
2018-08-20T10:23:52.121Z,55.60
2018-08-20T10:26:20.268Z,55.80
2018-08-20T10:28:48.451Z,55.60
2018-08-20T10:31:16.532Z,55.40
2018-08-20T10:33:44.658Z,55.60
2018-08-20T10:36:12.770Z,55.70
2018-08-20T10:38:40.905Z,55.40
2018-08-20T10:41:09.007Z,55.30
2018-08-20T10:43:37.265Z,55.00
2018-08-20T10:46:10.728Z,54.30
2018-08-20T10:48:38.822Z,54.10
2018-08-20T10:51:07.111Z,53.80
2018-08-20T10:53:35.202Z,52.80
2018-08-20T10:56:03.293Z,52.50
2018-08-20T10:58:31.441Z,52.60
2018-08-20T11:00:59.538Z,52.30
2018-08-20T11:03:27.656Z,52.00
2018-08-20T11:05:55.823Z,52.20
2018-08-20T11:08:23.871Z,52.20
2018-08-20T11:10:52.005Z,51.80
2018-08-20T11:13:20.074Z,51.90
2018-08-20T11:15:48.255Z,52.30
2018-08-20T11:18:16.348Z,52.80
2018-08-20T11:20:44.453Z,53.10
2018-08-20T11:23:12.618Z,53.30
2018-08-20T11:25:40.795Z,53.20
2018-08-20T11:28:08.967Z,53.30
2018-08-20T11:30:37.142Z,53.80
2018-08-20T11:33:05.349Z,53.90
2018-08-20T11:35:33.529Z,54.10
2018-08-20T11:38:01.714Z,54.40
2018-08-20T11:40:29.835Z,53.90
2018-08-20T11:42:57.953Z,54.40
2018-08-20T11:45:26.072Z,54.10
2018-08-20T11:47:54.191Z,54.10
2018-08-20T11:50:22.287Z,54.30
2018-08-20T11:52:50.423Z,54.60
2018-08-20T11:55:18.525Z,55.70
2018-08-20T11:57:46.876Z,56.40
2018-08-20T12:00:14.982Z,56.90
2018-08-20T12:02:43.114Z,57.10
2018-08-20T12:05:11.200Z,57.30
2018-08-20T12:07:39.380Z,57.10
2018-08-20T12:10:08.414Z,57.20
2018-08-20T12:12:36.682Z,57.30
2018-08-20T12:15:05.943Z,57.20
2018-08-20T12:17:34.087Z,57.30
2018-08-20T12:20:02.172Z,57.20
2018-08-20T12:22:30.364Z,57.30
2018-08-20T12:24:58.399Z,57.40
2018-08-20T12:27:26.491Z,57.60
2018-08-20T12:29:54.768Z,57.80
2018-08-20T12:32:22.850Z,58.00
2018-08-20T12:34:51.241Z,58.20
2018-08-20T12:37:19.385Z,58.00
2018-08-20T12:39:47.488Z,57.80
2018-08-20T12:42:15.586Z,57.20
2018-08-20T12:44:43.703Z,56.70
2018-08-20T12:47:11.807Z,56.50
2018-08-20T12:49:39.877Z,56.50
2018-08-20T12:52:08.522Z,56.60
2018-08-20T12:54:36.623Z,56.90
2018-08-20T12:57:04.772Z,57.20
2018-08-20T12:59:32.860Z,57.30
2018-08-20T13:02:01.044Z,57.50
2018-08-20T13:04:29.118Z,57.40
2018-08-20T13:06:57.251Z,56.90
2018-08-20T13:09:25.375Z,56.20
2018-08-20T13:11:53.500Z,55.80
2018-08-20T13:14:21.555Z,55.10
2018-08-20T13:16:49.777Z,54.40
2018-08-20T13:19:17.922Z,54.60
2018-08-20T13:21:46.572Z,54.80
2018-08-20T13:24:14.651Z,55.10
2018-08-20T13:26:42.748Z,55.40
2018-08-20T13:29:10.842Z,56.10
2018-08-20T13:31:38.957Z,56.40
2018-08-20T13:34:07.361Z,56.30
2018-08-20T13:36:35.472Z,56.20
2018-08-20T13:39:04.842Z,55.90
2018-08-20T13:41:32.935Z,55.70
2018-08-20T13:44:01.118Z,55.30
2018-08-20T13:46:29.182Z,55.60
2018-08-20T13:48:57.262Z,56.60
2018-08-20T13:51:25.393Z,57.40
2018-08-20T13:53:53.486Z,57.50
2018-08-20T13:56:21.601Z,57.60
2018-08-20T13:58:49.867Z,57.80
2018-08-20T14:01:18.002Z,57.50
2018-08-20T14:03:46.093Z,57.10
2018-08-20T14:06:14.314Z,57.20
2018-08-20T14:08:42.446Z,57.00
2018-08-20T14:11:10.594Z,56.90
2018-08-20T14:13:38.988Z,56.60
2018-08-20T14:16:07.111Z,56.70
2018-08-20T14:18:35.207Z,56.50
2018-08-20T14:21:09.011Z,56.20
2018-08-20T14:23:37.098Z,56.10
2018-08-20T14:26:05.204Z,55.90
2018-08-20T14:28:33.357Z,56.00
2018-08-20T14:31:01.448Z,56.10
2018-08-20T14:33:29.605Z,56.20
2018-08-20T14:35:57.714Z,56.40
2018-08-20T14:38:25.857Z,56.50
2018-08-20T14:40:53.929Z,56.50
2018-08-20T14:43:22.042Z,56.70
2018-08-20T14:45:55.705Z,56.70
2018-08-20T14:48:23.885Z,56.80
2018-08-20T14:50:52.018Z,56.90
2018-08-20T14:53:20.189Z,57.00
2018-08-20T14:55:48.229Z,56.90
2018-08-20T14:58:16.339Z,57.20
2018-08-20T15:00:44.422Z,57.60
2018-08-20T15:03:12.569Z,58.10
2018-08-20T15:05:40.854Z,58.40
2018-08-20T15:08:08.943Z,58.60
2018-08-20T15:10:37.062Z,58.90
2018-08-20T15:13:05.174Z,59.10
2018-08-20T15:15:33.533Z,59.30
2018-08-20T15:18:01.681Z,59.60
2018-08-20T15:20:29.833Z,59.70
2018-08-20T15:22:57.950Z,59.80
2018-08-20T15:25:26.066Z,60.00
2018-08-20T15:27:54.303Z,60.20
2018-08-20T15:30:22.511Z,60.50
2018-08-20T15:32:50.695Z,60.70
2018-08-20T15:35:18.769Z,60.60
2018-08-20T15:37:46.879Z,60.50
2018-08-20T15:40:15.022Z,60.70
2018-08-20T15:42:43.119Z,60.90
2018-08-20T15:45:11.252Z,61.20
2018-08-20T15:47:39.343Z,60.80
2018-08-20T15:50:07.531Z,60.80
2018-08-20T15:52:35.663Z,60.50
2018-08-20T15:55:04.206Z,60.10
2018-08-20T15:57:32.312Z,59.80
2018-08-20T16:00:00.408Z,60.30
2018-08-20T16:02:29.055Z,60.30
2018-08-20T16:04:57.148Z,60.40
2018-08-20T16:07:25.310Z,61.40
2018-08-20T16:09:53.438Z,61.20
2018-08-20T16:12:21.544Z,61.40
2018-08-20T16:14:49.712Z,61.50
2018-08-20T16:17:17.802Z,61.50
2018-08-20T16:19:45.985Z,61.60
2018-08-20T16:22:14.063Z,61.60
2018-08-20T16:24:42.195Z,61.50
2018-08-20T16:27:10.355Z,61.60
2018-08-20T16:29:38.492Z,61.70
2018-08-20T16:32:06.562Z,61.90
2018-08-20T16:34:34.697Z,62.00
2018-08-20T16:37:02.857Z,62.10
2018-08-20T16:39:30.964Z,62.00
2018-08-20T16:41:59.063Z,62.20
2018-08-20T16:44:27.214Z,62.10
2018-08-20T16:46:55.286Z,62.30
2018-08-20T16:49:23.429Z,62.50
2018-08-20T16:51:51.557Z,62.50
2018-08-20T16:54:19.674Z,62.40
2018-08-20T16:56:47.875Z,62.30
2018-08-20T16:59:16.182Z,62.40
2018-08-20T17:01:44.292Z,62.50
2018-08-20T17:04:28.070Z,62.60
2018-08-20T17:06:58.021Z,62.80
2018-08-20T17:09:27.322Z,62.80
2018-08-20T17:11:55.468Z,62.90
2018-08-20T17:14:23.593Z,63.20
2018-08-20T17:16:51.698Z,63.70
2018-08-20T17:19:19.834Z,64.00
2018-08-20T17:21:48.034Z,64.30
2018-08-20T17:24:24.379Z,64.50
2018-08-20T17:26:52.936Z,64.50
2018-08-20T17:29:22.224Z,64.70
2018-08-20T17:31:50.364Z,64.90
2018-08-20T17:34:18.451Z,65.20
2018-08-20T17:36:46.619Z,65.70
2018-08-20T17:39:14.769Z,66.60
2018-08-20T17:41:43.238Z,66.10
2018-08-20T17:44:11.366Z,66.60
2018-08-20T17:46:39.779Z,66.80
2018-08-20T17:49:10.355Z,66.80
2018-08-20T17:51:38.456Z,66.80
2018-08-20T17:54:06.581Z,66.90
2018-08-20T17:56:34.871Z,67.00
2018-08-20T17:59:08.374Z,67.00
2018-08-20T18:01:36.680Z,67.00
2018-08-20T18:04:05.030Z,67.20
2018-08-20T18:06:52.907Z,67.50
2018-08-20T18:09:21.091Z,67.60
2018-08-20T18:11:51.158Z,67.80
2018-08-20T18:14:21.057Z,67.90
2018-08-20T18:16:49.236Z,68.00
2018-08-20T18:19:17.608Z,68.20
2018-08-20T18:21:45.865Z,68.30
2018-08-20T18:24:16.078Z,68.60
2018-08-20T18:26:50.125Z,68.70
2018-08-20T18:29:18.306Z,68.70
2018-08-20T18:31:52.821Z,68.70
2018-08-20T18:34:21.310Z,68.80
2018-08-20T18:36:49.481Z,68.80
2018-08-20T18:39:17.651Z,68.70
2018-08-20T18:42:02.830Z,69.70
2018-08-20T18:44:31.006Z,68.80
2018-08-20T18:46:59.126Z,68.50
2018-08-20T18:49:27.391Z,69.20
2018-08-20T18:52:02.228Z,68.70
2018-08-20T18:54:39.668Z,68.60
2018-08-20T18:57:07.802Z,68.70
2018-08-20T18:59:37.147Z,68.60
2018-08-20T19:02:06.111Z,68.70
2018-08-20T19:04:41.570Z,68.80
2018-08-20T19:07:10.815Z,68.80
2018-08-20T19:09:39.892Z,68.90
2018-08-20T19:12:08.389Z,69.00
2018-08-20T19:14:36.466Z,69.20
2018-08-20T19:17:12.990Z,69.40
2018-08-20T19:19:45.453Z,69.40
2018-08-20T19:22:17.866Z,69.60
2018-08-20T19:24:45.966Z,69.50
2018-08-20T19:27:14.108Z,69.70
2018-08-20T19:29:42.235Z,69.70
2018-08-20T19:32:10.620Z,69.80
2018-08-20T19:34:38.813Z,69.80
2018-08-20T19:37:07.946Z,69.90
2018-08-20T19:39:36.310Z,69.90
2018-08-20T19:42:04.806Z,70.00
2018-08-20T19:44:33.034Z,70.00
2018-08-20T19:47:01.186Z,69.90
2018-08-20T19:49:29.363Z,69.90
2018-08-20T19:51:58.484Z,69.90
2018-08-20T19:54:27.295Z,69.90
2018-08-20T19:56:55.630Z,69.90
2018-08-20T19:59:29.276Z,69.90
2018-08-20T20:01:57.378Z,69.70
2018-08-20T20:04:25.539Z,69.80
2018-08-20T20:06:53.665Z,69.90
2018-08-20T20:09:21.805Z,70.10
2018-08-20T20:11:50.982Z,70.30
2018-08-20T20:14:19.134Z,70.30
2018-08-20T20:16:54.366Z,70.40
2018-08-20T20:19:22.630Z,70.40
2018-08-20T20:21:50.785Z,70.20
2018-08-20T20:24:18.950Z,70.30
2018-08-20T20:26:47.066Z,70.40
2018-08-20T20:29:15.253Z,70.50
2018-08-20T20:31:43.662Z,70.60
2018-08-20T20:34:11.845Z,70.50
2018-08-20T20:36:40.074Z,70.70
2018-08-20T20:39:09.457Z,70.90
2018-08-20T20:41:37.595Z,70.90
2018-08-20T20:44:06.080Z,71.00
2018-08-20T20:46:34.281Z,71.00
2018-08-20T20:49:02.410Z,71.20
2018-08-20T20:51:30.592Z,71.50
2018-08-20T20:53:58.738Z,71.50
2018-08-20T20:56:26.923Z,71.90
2018-08-20T20:58:55.047Z,72.40
2018-08-20T21:01:23.196Z,71.90
2018-08-20T21:03:51.311Z,72.00
2018-08-20T21:06:19.444Z,72.10
2018-08-20T21:08:48.606Z,72.10
2018-08-20T21:11:17.727Z,72.20
2018-08-20T21:13:46.163Z,72.10
2018-08-20T21:16:15.304Z,72.10
2018-08-20T21:18:45.636Z,72.00
2018-08-20T21:21:15.335Z,71.40
2018-08-20T21:23:43.490Z,71.20
2018-08-20T21:26:11.689Z,71.10
2018-08-20T21:28:42.532Z,70.90
2018-08-20T21:31:11.202Z,70.70
2018-08-20T21:33:39.915Z,70.80
2018-08-20T21:36:08.115Z,71.60
2018-08-20T21:38:36.256Z,70.60
2018-08-20T21:41:04.339Z,70.90
2018-08-20T21:43:37.992Z,70.20
2018-08-20T21:46:06.329Z,70.20
2018-08-20T21:48:34.491Z,70.30
2018-08-20T21:51:08.174Z,70.40
2018-08-20T21:53:37.503Z,70.20
2018-08-20T21:56:07.831Z,70.50
2018-08-20T21:58:44.045Z,70.40
2018-08-20T22:01:13.490Z,70.40
2018-08-20T22:03:42.160Z,70.50
2018-08-20T22:06:10.535Z,71.60
2018-08-20T22:08:38.631Z,71.20
2018-08-20T22:11:06.876Z,70.80
2018-08-20T22:13:34.951Z,70.90
2018-08-20T22:16:20.206Z,71.40
2018-08-20T22:18:55.746Z,71.40
2018-08-20T22:21:24.094Z,71.60
2018-08-20T22:23:55.480Z,71.80
2018-08-20T22:26:23.571Z,71.70
2018-08-20T22:28:52.079Z,71.60
2018-08-20T22:31:20.631Z,71.80
2018-08-20T22:33:57.062Z,71.80
2018-08-20T22:36:25.735Z,71.40
2018-08-20T22:38:54.910Z,71.70
2018-08-20T22:41:24.356Z,71.70
2018-08-20T22:43:52.462Z,71.80
2018-08-20T22:46:21.498Z,71.80
2018-08-20T22:48:50.271Z,71.90
2018-08-20T22:51:19.075Z,72.00
2018-08-20T22:53:49.454Z,72.00
2018-08-20T22:56:25.568Z,71.90
2018-08-20T22:59:09.932Z,71.70
2018-08-20T23:01:38.033Z,71.80
2018-08-20T23:04:06.410Z,71.90
2018-08-20T23:06:34.519Z,71.30
2018-08-20T23:09:19.700Z,70.90
2018-08-20T23:11:47.804Z,71.10
2018-08-20T23:14:15.906Z,70.30
2018-08-20T23:16:44.185Z,69.40
2018-08-20T23:19:12.364Z,69.10
2018-08-20T23:21:44.608Z,68.70
2018-08-20T23:24:13.585Z,68.40
2018-08-20T23:26:41.787Z,67.40
2018-08-20T23:29:10.145Z,67.00
2018-08-20T23:31:38.601Z,66.20
2018-08-20T23:34:08.518Z,65.80
2018-08-20T23:36:36.671Z,65.30
2018-08-20T23:39:07.377Z,65.80
2018-08-20T23:41:35.530Z,65.50
2018-08-20T23:44:03.627Z,65.20
2018-08-20T23:46:36.494Z,65.30
2018-08-20T23:49:04.598Z,66.30
2018-08-20T23:51:32.691Z,65.60
2018-08-20T23:54:00.795Z,65.70
2018-08-20T23:56:28.885Z,65.80
2018-08-20T23:58:57.039Z,65.60
